createdAt,value
2023-01-11T00:00:34.277Z,9.43
2023-01-11T00:03:04.510Z,8.15
2023-01-11T00:05:31.280Z,5.20
2023-01-11T00:07:58.693Z,8.40
2023-01-11T00:10:25.238Z,8.55
2023-01-11T00:12:51.940Z,7.05
2023-01-11T00:15:18.519Z,6.80
2023-01-11T00:17:45.156Z,9.10
2023-01-11T00:20:11.923Z,5.63
2023-01-11T00:22:38.463Z,9.88
2023-01-11T00:25:05.380Z,7.15
2023-01-11T00:27:32.217Z,5.47
2023-01-11T00:29:58.690Z,8.18
2023-01-11T00:32:27.259Z,6.50
2023-01-11T00:34:54.648Z,8.10
2023-01-11T00:37:21.432Z,8.40
2023-01-11T00:39:48.015Z,8.93
2023-01-11T00:42:32.955Z,11.25
2023-01-11T00:45:17.902Z,8.85
2023-01-11T00:48:04.843Z,10.27
2023-01-11T00:50:36.384Z,7.95
2023-01-11T00:53:04.257Z,7.82
2023-01-11T00:55:34.082Z,11.90
2023-01-11T00:58:01.436Z,10.30
2023-01-11T01:00:29.383Z,8.50
2023-01-11T01:02:56.061Z,8.98
2023-01-11T01:05:22.653Z,10.60
2023-01-11T01:07:49.232Z,8.70
2023-01-11T01:10:17.359Z,8.60
2023-01-11T01:13:02.434Z,11.75
2023-01-11T01:15:29.319Z,10.65
2023-01-11T01:17:56.094Z,10.18
2023-01-11T01:20:24.045Z,12.73
2023-01-11T01:22:51.153Z,9.05
2023-01-11T01:25:17.916Z,7.78
2023-01-11T01:27:44.588Z,8.85
2023-01-11T01:30:11.721Z,8.40
2023-01-11T01:32:38.267Z,8.25
2023-01-11T01:35:05.068Z,12.50
2023-01-11T01:37:31.582Z,10.90
2023-01-11T01:39:58.124Z,8.95
2023-01-11T01:42:25.264Z,10.10
2023-01-11T01:45:00.960Z,11.57
2023-01-11T01:47:37.756Z,9.18
2023-01-11T01:50:16.079Z,10.35
2023-01-11T01:52:46.037Z,10.23
2023-01-11T01:55:17.553Z,11.57
2023-01-11T01:57:45.376Z,10.00
2023-01-11T02:00:12.748Z,11.48
2023-01-11T02:02:41.139Z,7.70
2023-01-11T02:05:09.835Z,8.25
2023-01-11T02:07:40.005Z,9.63
2023-01-11T02:10:11.952Z,7.70
2023-01-11T02:12:43.093Z,7.10
2023-01-11T02:15:11.980Z,8.73
2023-01-11T02:17:38.501Z,9.05
2023-01-11T02:20:34.236Z,9.18
2023-01-11T02:26:07.978Z,9.45
2023-01-11T02:28:52.531Z,9.40
2023-01-11T02:31:38.640Z,8.95
2023-01-11T02:34:19.601Z,10.45
2023-01-11T02:37:00.928Z,12.95
2023-01-11T02:39:34.469Z,6.93
2023-01-11T02:42:27.649Z,8.40
2023-01-11T02:45:29.988Z,9.40
2023-01-11T02:47:56.398Z,7.15
2023-01-11T02:50:30.740Z,7.50
2023-01-11T02:53:15.687Z,8.68
2023-01-11T02:55:48.549Z,10.05
2023-01-11T02:58:18.120Z,11.63
2023-01-11T03:00:46.617Z,8.48
2023-01-11T03:03:13.717Z,6.85
2023-01-11T03:05:52.347Z,7.22
2023-01-11T03:08:24.549Z,8.52
2023-01-11T03:11:11.717Z,7.10
2023-01-11T03:14:00.364Z,7.35
2023-01-11T03:17:14.700Z,7.47
2023-01-11T03:19:50.852Z,6.43
2023-01-11T03:22:46.194Z,6.30
2023-01-11T03:25:24.683Z,9.70
2023-01-11T03:28:06.470Z,6.32
2023-01-11T03:30:48.637Z,10.05
2023-01-11T03:33:22.724Z,8.10
2023-01-11T03:36:14.406Z,6.18
2023-01-11T03:38:59.728Z,6.03
2023-01-11T03:43:57.251Z,6.60
2023-01-11T03:46:29.055Z,7.30
2023-01-11T03:49:00.910Z,9.05
2023-01-11T03:51:31.926Z,8.02
2023-01-11T03:54:03.492Z,7.30
2023-01-11T03:56:38.446Z,7.63
2023-01-11T04:01:31.823Z,10.07
2023-01-11T04:03:58.357Z,7.05
2023-01-11T04:06:25.781Z,8.00
2023-01-11T04:08:52.338Z,11.25
2023-01-11T04:11:19.008Z,7.90
2023-01-11T04:13:45.600Z,11.35
2023-01-11T04:16:12.192Z,9.18
2023-01-11T04:18:39.157Z,9.90
2023-01-11T04:21:05.994Z,7.47
2023-01-11T04:23:32.509Z,8.35
2023-01-11T04:25:59.032Z,10.25
2023-01-11T04:28:25.516Z,8.52
2023-01-11T04:30:52.180Z,11.02
2023-01-11T04:33:19.605Z,8.80
2023-01-11T04:35:46.172Z,7.57
2023-01-11T04:38:12.702Z,10.35
2023-01-11T04:40:39.187Z,10.88
2023-01-11T04:43:05.741Z,9.35
2023-01-11T04:45:32.822Z,9.38
2023-01-11T04:47:59.417Z,9.27
2023-01-11T04:50:27.419Z,10.93
2023-01-11T04:52:53.959Z,9.68
2023-01-11T04:55:20.749Z,13.10
2023-01-11T04:57:47.507Z,11.10
2023-01-11T05:00:16.280Z,9.55
2023-01-11T05:02:42.998Z,12.35
2023-01-11T05:05:10.355Z,14.25
2023-01-11T05:07:38.877Z,10.93
2023-01-11T05:10:06.120Z,11.02
2023-01-11T05:12:32.641Z,9.07
2023-01-11T05:14:59.277Z,8.68
2023-01-11T05:17:25.794Z,8.85
2023-01-11T05:19:52.319Z,8.63
2023-01-11T05:22:18.817Z,10.63
2023-01-11T05:24:45.342Z,8.27
2023-01-11T05:27:12.003Z,9.85
2023-01-11T05:29:38.655Z,9.32
2023-01-11T05:32:05.523Z,8.00
2023-01-11T05:34:32.132Z,9.75
2023-01-11T05:36:58.678Z,11.27
2023-01-11T05:39:25.274Z,10.48
2023-01-11T05:41:51.769Z,12.38
2023-01-11T05:44:36.918Z,8.48
2023-01-11T05:47:04.471Z,11.65
2023-01-11T05:49:31.033Z,10.63
2023-01-11T05:51:57.637Z,8.05
2023-01-11T05:54:24.255Z,9.80
2023-01-11T05:56:50.838Z,12.10
2023-01-11T05:59:17.713Z,9.73
2023-01-11T06:01:44.370Z,10.70
2023-01-11T06:04:11.108Z,11.40
2023-01-11T06:06:37.813Z,10.60
2023-01-11T06:09:04.790Z,8.48
2023-01-11T06:11:31.707Z,9.43
2023-01-11T06:13:58.261Z,11.45
2023-01-11T06:16:24.933Z,11.57
2023-01-11T06:18:53.115Z,9.75
2023-01-11T06:21:20.579Z,11.05
2023-01-11T06:23:52.957Z,15.30
2023-01-11T06:26:21.912Z,11.30
2023-01-11T06:28:49.175Z,11.73
2023-01-11T06:31:17.936Z,12.95
2023-01-11T06:33:45.228Z,11.07
2023-01-11T06:36:13.752Z,13.32
2023-01-11T06:38:40.344Z,16.50
2023-01-11T06:41:08.704Z,10.65
2023-01-11T06:43:36.400Z,11.50
2023-01-11T06:46:03.059Z,12.77
2023-01-11T06:48:29.664Z,14.32
2023-01-11T06:50:58.165Z,13.80
2023-01-11T06:53:28.624Z,12.18
2023-01-11T06:55:57.767Z,10.93
2023-01-11T06:58:25.510Z,14.50
2023-01-11T07:00:53.926Z,13.38
2023-01-11T07:03:21.163Z,14.65
2023-01-11T07:05:47.882Z,13.32
2023-01-11T07:08:14.524Z,11.60
2023-01-11T07:10:42.237Z,14.55
2023-01-11T07:13:09.882Z,24.50
2023-01-11T07:15:36.727Z,18.98
2023-01-11T07:18:03.843Z,14.75
2023-01-11T07:20:30.509Z,12.70
2023-01-11T07:22:59.451Z,16.25
2023-01-11T07:25:30.403Z,13.23
2023-01-11T07:27:58.901Z,13.70
2023-01-11T07:30:26.826Z,14.50
2023-01-11T07:32:53.342Z,16.05
2023-01-11T07:35:20.229Z,14.70
2023-01-11T07:37:46.780Z,11.85
2023-01-11T07:40:13.936Z,14.18
2023-01-11T07:42:58.969Z,13.27
2023-01-11T07:45:34.324Z,12.38
2023-01-11T07:48:10.766Z,12.30
2023-01-11T07:50:39.510Z,14.23
2023-01-11T07:53:07.621Z,12.07
2023-01-11T07:55:34.575Z,12.10
2023-01-11T07:58:01.171Z,10.98
2023-01-11T08:00:27.706Z,12.63
2023-01-11T08:02:54.429Z,14.52
2023-01-11T08:05:22.018Z,14.98
2023-01-11T08:07:48.827Z,14.10
2023-01-11T08:10:15.840Z,12.48
2023-01-11T08:13:02.947Z,14.45
2023-01-11T08:15:30.304Z,15.23
2023-01-11T08:17:56.929Z,15.68
2023-01-11T08:20:23.863Z,13.77
2023-01-11T08:22:50.463Z,17.67
2023-01-11T08:25:17.145Z,16.70
2023-01-11T08:27:44.134Z,15.60
2023-01-11T08:30:11.740Z,19.83
2023-01-11T08:32:38.423Z,20.40
2023-01-11T08:35:05.700Z,21.25
2023-01-11T08:37:32.360Z,20.27
2023-01-11T08:39:58.860Z,19.15
2023-01-11T08:42:26.384Z,25.00
2023-01-11T08:44:53.942Z,22.13
2023-01-11T08:47:20.520Z,20.63
2023-01-11T08:49:47.275Z,22.50
2023-01-11T08:52:14.502Z,19.95
2023-01-11T08:54:42.036Z,22.98
2023-01-11T08:57:08.678Z,21.63
2023-01-11T08:59:37.265Z,21.70
2023-01-11T09:02:05.464Z,21.92
2023-01-11T09:04:34.451Z,18.27
2023-01-11T09:07:02.175Z,22.20
2023-01-11T09:09:28.782Z,18.55
2023-01-11T09:11:56.717Z,19.92
2023-01-11T09:14:25.555Z,21.83
2023-01-11T09:16:53.111Z,20.75
2023-01-11T09:19:20.796Z,20.80
2023-01-11T09:21:47.618Z,24.17
2023-01-11T09:24:14.923Z,25.85
2023-01-11T09:26:43.425Z,24.65
2023-01-11T09:29:11.636Z,16.42
2023-01-11T09:31:38.619Z,18.77
2023-01-11T09:34:07.057Z,17.25
2023-01-11T09:36:36.071Z,13.48
2023-01-11T09:39:07.691Z,17.08
2023-01-11T09:41:47.276Z,14.35
2023-01-11T09:44:19.284Z,15.60
2023-01-11T09:46:50.352Z,14.32
2023-01-11T09:49:57.977Z,13.90
2023-01-11T09:53:15.233Z,13.27
2023-01-11T09:55:47.067Z,15.70
2023-01-11T09:58:46.674Z,16.80
2023-01-11T10:01:54.511Z,17.30
2023-01-11T10:04:50.200Z,15.30
2023-01-11T10:18:41.379Z,16.33
2023-01-11T10:19:40.226Z,13.83
2023-01-11T10:22:33.671Z,19.45
2023-01-11T10:25:18.808Z,21.00
2023-01-11T10:27:59.365Z,15.57
2023-01-11T10:30:43.820Z,13.82
2023-01-11T10:33:49.721Z,12.83
2023-01-11T10:36:34.921Z,14.30
2023-01-11T10:39:35.892Z,14.60
2023-01-11T10:42:13.327Z,17.38
2023-01-11T10:44:43.832Z,14.57
2023-01-11T10:47:17.945Z,14.52
2023-01-11T10:49:56.032Z,13.80
2023-01-11T10:52:35.449Z,14.52
2023-01-11T10:55:13.139Z,12.65
2023-01-11T10:58:02.313Z,15.13
2023-01-11T11:00:51.623Z,13.45
2023-01-11T11:03:39.009Z,15.27
2023-01-11T11:06:05.519Z,15.30
2023-01-11T11:08:56.149Z,13.95
2023-01-11T11:11:27.999Z,11.55
2023-01-11T11:14:12.753Z,10.05
2023-01-11T11:16:56.259Z,11.75
2023-01-11T11:19:26.726Z,12.88
2023-01-11T11:21:53.852Z,10.20
2023-01-11T11:24:32.549Z,11.40
2023-01-11T11:27:22.425Z,13.90
2023-01-11T11:29:54.966Z,10.88
2023-01-11T11:32:27.115Z,13.35
2023-01-11T11:34:53.928Z,12.35
2023-01-11T11:37:35.525Z,15.85
2023-01-11T11:40:03.496Z,12.27
2023-01-11T11:42:30.341Z,14.75
2023-01-11T11:45:09.033Z,23.35
2023-01-11T11:47:36.841Z,12.32
2023-01-11T11:50:43.713Z,14.73
2023-01-11T11:53:22.675Z,12.73
2023-01-11T11:55:51.295Z,11.32
2023-01-11T11:58:22.072Z,10.98
2023-01-11T12:00:51.371Z,13.02
2023-01-11T12:03:23.435Z,13.77
2023-01-11T12:06:03.028Z,13.25
2023-01-11T12:08:36.223Z,13.00
2023-01-11T12:11:08.115Z,13.20
2023-01-11T12:13:38.658Z,21.17
2023-01-11T12:16:18.203Z,11.05
2023-01-11T12:18:44.858Z,12.18
2023-01-11T12:21:26.517Z,14.65
2023-01-11T12:24:18.461Z,13.30
2023-01-11T12:26:57.216Z,11.75
2023-01-11T12:29:48.444Z,26.67
2023-01-11T12:32:46.151Z,14.75
2023-01-11T12:35:22.261Z,14.25
2023-01-11T12:38:00.709Z,11.93
2023-01-11T12:40:41.159Z,13.13
2023-01-11T12:43:27.634Z,12.00
2023-01-11T12:46:23.942Z,17.00
2023-01-11T12:49:28.534Z,14.13
2023-01-11T12:52:10.232Z,11.43
2023-01-11T12:54:57.257Z,12.25
2023-01-11T12:58:00.603Z,9.48
2023-01-11T13:00:53.459Z,9.30
2023-01-11T13:03:38.833Z,11.57
2023-01-11T13:08:49.282Z,12.65
2023-01-11T13:11:45.897Z,15.73
2023-01-11T13:14:56.673Z,12.02
2023-01-11T13:17:33.663Z,15.05
2023-01-11T13:20:28.202Z,10.32
2023-01-11T13:23:02.026Z,15.77
2023-01-11T13:25:32.959Z,9.43
2023-01-11T13:28:06.804Z,9.85
2023-01-11T13:30:37.370Z,10.50
2023-01-11T13:33:14.900Z,17.17
2023-01-11T13:35:50.192Z,17.08
2023-01-11T13:39:03.431Z,22.20
2023-01-11T13:41:48.642Z,16.73
2023-01-11T13:44:37.435Z,14.35
2023-01-11T13:47:19.314Z,11.93
2023-01-11T13:49:59.397Z,11.98
2023-01-11T13:52:42.272Z,9.45
2023-01-11T13:55:35.928Z,9.88
2023-01-11T13:58:29.253Z,10.20
2023-01-11T14:01:02.609Z,10.15
2023-01-11T14:03:51.260Z,14.02
2023-01-11T14:06:51.569Z,12.77
2023-01-11T14:09:36.123Z,18.83
2023-01-11T14:12:20.372Z,30.90
2023-01-11T14:14:59.261Z,27.08
2023-01-11T14:17:59.929Z,27.00
2023-01-11T14:21:13.223Z,28.83
2023-01-11T14:23:55.336Z,14.93
2023-01-11T14:26:54.583Z,18.52
2023-01-11T14:29:59.386Z,16.08
2023-01-11T14:32:53.869Z,18.42
2023-01-11T14:35:38.437Z,16.73
2023-01-11T14:38:34.863Z,17.70
2023-01-11T14:41:29.333Z,14.18
2023-01-11T14:44:14.323Z,16.65
2023-01-11T14:46:58.259Z,13.60
2023-01-11T14:49:54.584Z,18.67
2023-01-11T14:52:38.488Z,17.52
2023-01-11T14:55:31.974Z,13.40
2023-01-11T14:58:24.426Z,12.60
2023-01-11T15:01:04.993Z,15.55
2023-01-11T15:03:38.961Z,13.52
2023-01-11T15:06:20.798Z,15.37
2023-01-11T15:08:50.355Z,14.85
2023-01-11T15:11:33.324Z,14.20
2023-01-11T15:14:26.305Z,18.83
2023-01-11T15:17:15.575Z,21.38
2023-01-11T15:19:44.287Z,43.85
2023-01-11T15:22:28.999Z,36.45
2023-01-11T15:25:05.752Z,24.85
2023-01-11T15:27:37.926Z,22.45
2023-01-11T15:30:08.120Z,17.92
2023-01-11T15:32:36.239Z,27.27
2023-01-11T15:35:25.102Z,25.30
2023-01-11T15:38:11.796Z,20.92
2023-01-11T15:40:44.683Z,21.85
2023-01-11T15:44:04.031Z,21.10
2023-01-11T15:47:05.761Z,20.67
2023-01-11T15:50:17.450Z,24.08
2023-01-11T15:53:09.545Z,21.88
2023-01-11T15:56:22.207Z,22.80
2023-01-11T15:59:13.955Z,21.15
2023-01-11T16:02:11.248Z,22.42
2023-01-11T16:05:02.103Z,17.92
2023-01-11T16:07:40.776Z,24.30
2023-01-11T16:10:16.323Z,20.88
2023-01-11T16:13:03.799Z,18.13
2023-01-11T16:15:58.336Z,19.83
2023-01-11T16:18:29.913Z,17.30
2023-01-11T16:21:08.129Z,20.75
2023-01-11T16:23:35.343Z,18.15
2023-01-11T16:26:05.228Z,17.52
2023-01-11T16:28:31.900Z,17.60
2023-01-11T16:31:04.610Z,18.80
2023-01-11T16:33:35.166Z,16.30
2023-01-11T16:36:07.740Z,16.65
2023-01-11T16:39:00.444Z,18.45
2023-01-11T16:41:32.403Z,56.13
2023-01-11T16:44:09.245Z,21.45
2023-01-11T16:47:03.812Z,20.25
2023-01-11T16:49:31.244Z,21.73
2023-01-11T16:51:59.940Z,20.20
2023-01-11T16:54:30.866Z,18.55
2023-01-11T16:56:58.898Z,19.95
2023-01-11T16:59:34.009Z,20.92
2023-01-11T17:02:05.874Z,21.55
2023-01-11T17:04:34.215Z,24.20
2023-01-11T17:07:14.635Z,18.52
2023-01-11T17:09:43.717Z,18.70
2023-01-11T17:12:17.661Z,20.98
2023-01-11T17:15:11.576Z,19.58
2023-01-11T17:17:41.368Z,20.25
2023-01-11T17:20:20.943Z,23.38
2023-01-11T17:22:54.233Z,18.40
2023-01-11T17:25:29.537Z,23.17
2023-01-11T17:28:02.919Z,18.58
2023-01-11T17:30:30.509Z,20.88
2023-01-11T17:33:01.755Z,17.77
2023-01-11T17:35:29.411Z,19.42
2023-01-11T17:37:59.512Z,19.63
2023-01-11T17:40:31.922Z,22.75
2023-01-11T17:43:28.611Z,18.45
2023-01-11T17:45:58.298Z,18.88
2023-01-11T17:48:27.303Z,20.58
2023-01-11T17:50:58.079Z,18.23
2023-01-11T17:53:28.528Z,20.35
2023-01-11T17:55:59.115Z,18.95
2023-01-11T17:58:30.430Z,18.58
2023-01-11T18:01:08.903Z,19.40
2023-01-11T18:03:58.652Z,19.65
2023-01-11T18:06:36.055Z,18.58
2023-01-11T18:09:08.040Z,23.55
2023-01-11T18:11:41.628Z,19.48
2023-01-11T18:14:18.574Z,22.85
2023-01-11T18:17:07.876Z,21.35
2023-01-11T18:19:42.708Z,25.45
2023-01-11T18:22:53.646Z,25.38
2023-01-11T18:25:28.697Z,24.27
2023-01-11T18:28:26.935Z,21.55
2023-01-11T18:30:58.029Z,21.33
2023-01-11T18:33:28.388Z,20.15
2023-01-11T18:35:58.411Z,46.70
2023-01-11T18:38:28.983Z,35.05
2023-01-11T18:40:57.296Z,24.35
2023-01-11T18:43:30.187Z,27.20
2023-01-11T18:45:57.056Z,25.48
2023-01-11T18:48:23.981Z,24.15
2023-01-11T18:50:52.327Z,21.92
2023-01-11T18:53:19.017Z,22.65
2023-01-11T18:55:46.056Z,21.77
2023-01-11T18:58:12.738Z,22.50
2023-01-11T19:00:41.091Z,21.00
2023-01-11T19:03:10.350Z,20.73
2023-01-11T19:05:36.916Z,22.90
2023-01-11T19:08:03.497Z,21.65
2023-01-11T19:10:30.024Z,21.42
2023-01-11T19:12:57.432Z,19.02
2023-01-11T19:15:24.158Z,17.90
2023-01-11T19:17:50.887Z,20.10
2023-01-11T19:20:17.651Z,18.15
2023-01-11T19:22:44.231Z,18.70
2023-01-11T19:25:11.039Z,16.90
2023-01-11T19:27:38.186Z,19.17
2023-01-11T19:30:06.363Z,20.58
2023-01-11T19:32:33.013Z,24.60
2023-01-11T19:35:01.104Z,18.33
2023-01-11T19:37:28.259Z,19.02
2023-01-11T19:39:54.758Z,19.08
2023-01-11T19:45:37.204Z,24.33
2023-01-11T19:48:05.192Z,22.15
2023-01-11T19:50:31.926Z,23.40
2023-01-11T19:52:58.690Z,20.98
2023-01-11T19:55:25.282Z,20.08
2023-01-11T19:57:51.981Z,19.52
2023-01-11T20:00:20.611Z,27.65
2023-01-11T20:02:47.247Z,24.05
2023-01-11T20:05:14.290Z,25.85
2023-01-11T20:07:40.858Z,22.52
2023-01-11T20:10:07.827Z,24.15
2023-01-11T20:12:34.337Z,23.55
2023-01-11T20:15:01.360Z,26.17
2023-01-11T20:17:28.743Z,23.65
2023-01-11T20:19:55.451Z,25.52
2023-01-11T20:22:25.449Z,28.70
2023-01-11T20:24:52.091Z,26.63
2023-01-11T20:27:18.754Z,28.73
2023-01-11T20:29:45.787Z,23.85
2023-01-11T20:32:35.050Z,33.95
2023-01-11T20:34:59.017Z,35.70
2023-01-11T20:37:25.661Z,32.80
2023-01-11T20:39:52.326Z,27.67
2023-01-11T20:42:18.883Z,29.73
2023-01-11T20:44:45.471Z,28.77
2023-01-11T20:47:11.978Z,26.08
2023-01-11T20:49:38.554Z,25.67
2023-01-11T20:52:05.340Z,31.15
2023-01-11T20:54:31.919Z,27.00
2023-01-11T20:57:02.211Z,26.85
2023-01-11T20:59:28.702Z,25.90
2023-01-11T21:01:55.392Z,29.88
2023-01-11T21:04:22.024Z,27.83
2023-01-11T21:06:48.900Z,28.67
2023-01-11T21:09:17.628Z,27.52
2023-01-11T21:11:44.571Z,27.45
2023-01-11T21:14:14.081Z,23.30
2023-01-11T21:16:42.136Z,28.50
2023-01-11T21:19:11.882Z,26.73
2023-01-11T21:21:38.543Z,24.95
2023-01-11T21:24:05.540Z,31.40
2023-01-11T21:26:33.305Z,23.25
2023-01-11T21:29:02.303Z,19.65
2023-01-11T21:31:31.558Z,17.80
2023-01-11T21:33:59.106Z,21.17
2023-01-11T21:36:27.248Z,21.92
2023-01-11T21:38:54.891Z,21.58
2023-01-11T21:41:44.150Z,19.27
2023-01-11T21:44:13.092Z,20.20
2023-01-11T21:46:40.319Z,20.77
2023-01-11T21:49:08.559Z,19.67
2023-01-11T21:51:35.457Z,17.52
2023-01-11T21:54:07.387Z,18.70
2023-01-11T21:56:34.509Z,18.20
2023-01-11T21:59:01.442Z,21.95
2023-01-11T22:01:28.866Z,18.33
2023-01-11T22:03:55.904Z,20.38
2023-01-11T22:06:22.865Z,19.95
2023-01-11T22:08:49.512Z,16.90
2023-01-11T22:11:17.457Z,22.42
2023-01-11T22:13:44.523Z,21.40
2023-01-11T22:16:14.364Z,24.13
2023-01-11T22:18:41.390Z,21.90
2023-01-11T22:21:11.226Z,22.60
2023-01-11T22:23:39.065Z,21.48
2023-01-11T22:26:07.506Z,20.67
2023-01-11T22:28:54.021Z,21.10
2023-01-11T22:31:21.256Z,25.13
2023-01-11T22:33:48.358Z,20.58
2023-01-11T22:36:15.369Z,24.27
2023-01-11T22:38:42.126Z,21.80
2023-01-11T22:41:09.399Z,22.88
2023-01-11T22:43:36.019Z,24.50
2023-01-11T22:46:02.768Z,21.85
2023-01-11T22:48:31.527Z,22.38
2023-01-11T22:50:58.632Z,20.10
2023-01-11T22:53:25.211Z,21.70
2023-01-11T22:55:51.805Z,23.38
2023-01-11T22:58:18.270Z,23.65
2023-01-11T23:00:44.915Z,22.58
2023-01-11T23:03:11.575Z,20.73
2023-01-11T23:05:44.530Z,20.70
2023-01-11T23:08:11.056Z,17.85
2023-01-11T23:10:37.576Z,21.20
2023-01-11T23:13:22.863Z,21.52
2023-01-11T23:18:22.695Z,20.45
2023-01-11T23:20:49.238Z,24.23
2023-01-11T23:23:15.750Z,24.30
2023-01-11T23:25:42.495Z,24.15
2023-01-11T23:28:09.020Z,23.17
2023-01-11T23:30:37.177Z,25.58
2023-01-11T23:33:03.805Z,22.10
2023-01-11T23:35:30.346Z,23.70
2023-01-11T23:37:56.889Z,24.77
2023-01-11T23:40:23.941Z,24.00
2023-01-11T23:42:50.482Z,27.27
2023-01-11T23:45:16.961Z,26.27
2023-01-11T23:47:43.588Z,26.15
2023-01-11T23:50:10.455Z,25.08
2023-01-11T23:52:37.000Z,24.30
2023-01-11T23:55:03.729Z,25.98
2023-01-11T23:57:31.263Z,23.85
2023-01-11T23:59:57.880Z,25.83
